createdAt,value
2018-10-09T00:00:56.151Z,27.83
2018-10-09T00:03:28.095Z,28.43
2018-10-09T00:05:59.933Z,28.23
2018-10-09T00:08:31.637Z,28.67
2018-10-09T00:11:03.421Z,27.93
2018-10-09T00:13:35.193Z,27.90
2018-10-09T00:16:07.492Z,28.33
2018-10-09T00:18:39.793Z,30.63
2018-10-09T00:21:11.748Z,33.07
2018-10-09T00:23:44.208Z,34.80
2018-10-09T00:26:15.987Z,32.43
2018-10-09T00:28:47.726Z,30.57
2018-10-09T00:31:19.820Z,28.83
2018-10-09T00:33:51.410Z,29.90
2018-10-09T00:36:23.275Z,29.70
2018-10-09T00:38:56.671Z,30.83
2018-10-09T00:41:28.459Z,29.43
2018-10-09T00:44:00.322Z,28.87
2018-10-09T00:46:31.927Z,28.07
2018-10-09T00:49:03.681Z,27.20
2018-10-09T00:51:35.311Z,27.90
2018-10-09T00:54:07.461Z,28.83
2018-10-09T00:56:39.168Z,31.53
2018-10-09T00:59:11.611Z,29.97
2018-10-09T01:01:43.455Z,29.93
2018-10-09T01:04:14.761Z,29.57
2018-10-09T01:06:46.377Z,28.00
2018-10-09T01:09:18.278Z,29.47
2018-10-09T01:11:50.257Z,30.30
2018-10-09T01:14:22.055Z,30.03
2018-10-09T01:16:53.873Z,28.77
2018-10-09T01:19:26.003Z,29.77
2018-10-09T01:21:57.818Z,30.40
2018-10-09T01:24:29.628Z,29.90
2018-10-09T01:27:01.501Z,29.73
2018-10-09T01:29:33.181Z,29.80
2018-10-09T01:32:04.984Z,29.87
2018-10-09T01:34:36.830Z,29.37
2018-10-09T01:37:08.146Z,30.90
2018-10-09T01:39:40.047Z,32.97
2018-10-09T01:42:12.593Z,33.03
2018-10-09T01:44:44.367Z,31.30
2018-10-09T01:47:16.201Z,29.87
2018-10-09T01:49:48.275Z,29.57
2018-10-09T01:52:20.133Z,29.00
2018-10-09T01:54:51.997Z,31.17
2018-10-09T01:57:23.777Z,29.23
2018-10-09T01:59:55.428Z,35.47
2018-10-09T02:02:27.634Z,31.03
2018-10-09T02:04:59.448Z,29.57
2018-10-09T02:07:31.022Z,30.13
2018-10-09T02:10:02.522Z,31.40
2018-10-09T02:12:34.323Z,30.43
2018-10-09T02:15:06.465Z,30.00
2018-10-09T02:17:38.201Z,28.60
2018-10-09T02:20:10.217Z,29.83
2018-10-09T02:22:42.090Z,29.87
2018-10-09T02:25:13.834Z,29.17
2018-10-09T02:27:45.503Z,29.33
2018-10-09T02:30:17.353Z,29.00
2018-10-09T02:32:49.132Z,28.50
2018-10-09T02:35:21.212Z,30.30
2018-10-09T02:37:53.460Z,29.90
2018-10-09T02:40:25.417Z,29.47
2018-10-09T02:42:57.650Z,29.27
2018-10-09T02:45:29.099Z,29.40
2018-10-09T02:48:00.792Z,31.87
2018-10-09T02:50:32.674Z,31.57
2018-10-09T02:53:05.090Z,32.13
2018-10-09T02:55:36.838Z,32.10
2018-10-09T02:58:08.653Z,31.40
2018-10-09T03:00:40.504Z,33.00
2018-10-09T03:03:12.213Z,31.03
2018-10-09T03:05:44.835Z,31.93
2018-10-09T03:08:16.901Z,31.50
2018-10-09T03:10:48.609Z,32.10
2018-10-09T03:13:20.547Z,32.97
2018-10-09T03:15:52.329Z,33.13
2018-10-09T03:18:23.949Z,31.80
2018-10-09T03:20:56.217Z,31.40
2018-10-09T03:23:27.980Z,31.83
2018-10-09T03:26:05.235Z,30.43
2018-10-09T03:28:36.909Z,34.93
2018-10-09T03:31:09.065Z,33.50
2018-10-09T03:33:40.727Z,32.00
2018-10-09T03:36:12.985Z,31.87
2018-10-09T03:38:44.657Z,32.50
2018-10-09T03:41:16.451Z,30.40
2018-10-09T03:43:48.146Z,31.77
2018-10-09T03:46:19.961Z,31.10
2018-10-09T03:48:53.881Z,30.27
2018-10-09T03:51:26.062Z,29.67
2018-10-09T03:53:57.891Z,31.43
2018-10-09T03:56:29.947Z,30.47
2018-10-09T03:59:01.807Z,30.10
2018-10-09T04:01:33.251Z,30.57
2018-10-09T04:04:05.019Z,33.10
2018-10-09T04:06:35.981Z,31.87
2018-10-09T04:09:09.491Z,31.10
2018-10-09T04:11:41.468Z,30.83
2018-10-09T04:14:12.870Z,32.93
2018-10-09T04:16:43.893Z,33.37
2018-10-09T04:19:15.199Z,40.17
2018-10-09T04:21:47.241Z,36.17
2018-10-09T04:24:18.774Z,35.80
2018-10-09T04:26:50.400Z,32.90
2018-10-09T04:29:22.103Z,36.87
2018-10-09T04:31:54.779Z,35.27
2018-10-09T04:34:25.183Z,36.00
2018-10-09T04:36:56.493Z,34.97
2018-10-09T04:39:28.336Z,32.73
2018-10-09T04:42:00.218Z,31.97
2018-10-09T04:44:32.548Z,31.80
2018-10-09T04:47:04.367Z,32.67
2018-10-09T04:49:36.935Z,32.83
2018-10-09T04:52:08.797Z,30.27
2018-10-09T04:54:40.137Z,31.60
2018-10-09T04:57:11.510Z,32.53
2018-10-09T04:59:43.223Z,31.37
2018-10-09T05:02:15.343Z,32.83
2018-10-09T05:04:45.880Z,32.07
2018-10-09T05:07:19.685Z,32.47
2018-10-09T05:09:52.202Z,32.27
2018-10-09T05:12:24.956Z,32.13
2018-10-09T05:14:56.127Z,31.33
2018-10-09T05:17:28.007Z,31.20
2018-10-09T05:20:00.049Z,32.33
2018-10-09T05:22:31.325Z,33.70
2018-10-09T05:25:02.714Z,31.30
2018-10-09T05:27:34.834Z,30.67
2018-10-09T05:30:06.907Z,31.80
2018-10-09T05:32:38.237Z,35.93
2018-10-09T05:35:14.736Z,33.03
2018-10-09T05:37:47.155Z,34.67
2018-10-09T05:40:19.741Z,34.70
2018-10-09T05:42:51.802Z,34.07
2018-10-09T05:45:23.386Z,36.40
2018-10-09T05:47:55.261Z,38.93
2018-10-09T05:50:27.803Z,36.70
2018-10-09T05:52:59.657Z,41.23
2018-10-09T05:55:31.634Z,41.30
2018-10-09T05:58:03.833Z,39.50
2018-10-09T06:00:34.884Z,40.40
2018-10-09T06:03:06.570Z,40.40
2018-10-09T06:05:38.639Z,45.13
2018-10-09T06:08:10.333Z,43.67
2018-10-09T06:10:41.666Z,48.90
2018-10-09T06:13:13.109Z,46.77
2018-10-09T06:15:44.925Z,47.27
2018-10-09T06:18:17.912Z,47.40
2018-10-09T06:20:48.375Z,46.50
2018-10-09T06:23:20.340Z,46.87
2018-10-09T06:25:52.271Z,50.23
2018-10-09T06:28:23.641Z,50.23
2018-10-09T06:30:55.174Z,49.30
2018-10-09T06:33:27.254Z,52.60
2018-10-09T06:35:59.355Z,51.40
2018-10-09T06:38:30.768Z,52.67
2018-10-09T06:41:02.117Z,55.00
2018-10-09T06:43:35.642Z,61.17
2018-10-09T06:46:07.907Z,58.40
2018-10-09T06:48:39.057Z,58.60
2018-10-09T06:51:10.258Z,57.57
2018-10-09T06:53:42.226Z,55.93
2018-10-09T06:56:13.530Z,63.50
2018-10-09T06:58:44.897Z,73.63
2018-10-09T07:01:16.483Z,77.73
2018-10-09T07:03:48.397Z,79.10
2018-10-09T07:06:19.783Z,71.50
2018-10-09T07:08:51.156Z,77.23
2018-10-09T07:11:23.282Z,75.67
2018-10-09T07:13:56.677Z,74.03
2018-10-09T07:16:27.943Z,78.17
2018-10-09T07:18:59.366Z,80.40
2018-10-09T07:21:31.271Z,75.40
2018-10-09T07:24:03.465Z,71.60
2018-10-09T07:26:34.603Z,64.93
2018-10-09T07:29:05.195Z,57.13
2018-10-09T07:31:37.147Z,62.00
2018-10-09T07:34:09.179Z,53.73
2018-10-09T07:36:41.503Z,48.30
2018-10-09T07:39:13.964Z,42.13
2018-10-09T07:41:45.805Z,40.40
2018-10-09T07:44:17.083Z,42.73
2018-10-09T07:46:48.494Z,40.67
2018-10-09T07:49:20.765Z,37.87
2018-10-09T07:51:52.554Z,36.23
2018-10-09T07:54:23.890Z,35.87
2018-10-09T07:56:55.192Z,35.53
2018-10-09T07:59:26.743Z,35.97
2018-10-09T08:01:58.784Z,37.03
2018-10-09T08:04:30.141Z,32.93
2018-10-09T08:07:01.350Z,31.40
2018-10-09T08:09:33.857Z,32.23
2018-10-09T08:12:05.898Z,32.33
2018-10-09T08:14:37.656Z,27.40
2018-10-09T08:17:09.167Z,27.00
2018-10-09T08:19:41.088Z,24.63
2018-10-09T08:22:12.662Z,30.07
2018-10-09T08:24:44.021Z,22.63
2018-10-09T08:27:16.356Z,21.20
2018-10-09T08:29:48.848Z,23.30
2018-10-09T08:32:20.355Z,20.40
2018-10-09T08:34:51.078Z,18.30
2018-10-09T08:37:23.094Z,17.87
2018-10-09T08:39:54.836Z,18.53
2018-10-09T08:42:26.088Z,17.13
2018-10-09T08:44:58.335Z,18.03
2018-10-09T08:47:29.959Z,17.20
2018-10-09T08:50:02.048Z,17.47
2018-10-09T08:52:33.526Z,17.62
2018-10-09T08:55:05.104Z,16.63
2018-10-09T08:57:36.951Z,16.30
2018-10-09T09:00:10.888Z,17.70
2018-10-09T09:02:42.281Z,16.50
2018-10-09T09:05:12.857Z,16.60
2018-10-09T09:07:45.356Z,16.40
2018-10-09T09:10:16.474Z,16.97
2018-10-09T09:12:48.161Z,17.10
2018-10-09T09:15:20.989Z,19.40
2018-10-09T09:17:53.784Z,21.82
2018-10-09T09:20:25.649Z,24.98
2018-10-09T09:22:57.527Z,24.98
2018-10-09T09:25:30.462Z,22.55
2018-10-09T09:28:02.992Z,24.37
2018-10-09T09:30:35.342Z,23.02
2018-10-09T09:33:07.897Z,23.60
2018-10-09T09:35:40.728Z,17.92
2018-10-09T09:38:13.590Z,17.98
2018-10-09T09:40:46.444Z,18.23
2018-10-09T09:43:17.546Z,16.42
2018-10-09T09:45:50.329Z,17.40
2018-10-09T09:48:22.492Z,15.50
2018-10-09T09:50:54.748Z,15.60
2018-10-09T09:53:27.293Z,14.20
2018-10-09T09:56:00.705Z,16.23
2018-10-09T09:58:32.774Z,15.38
2018-10-09T10:01:09.628Z,15.50
2018-10-09T10:03:42.574Z,15.30
2018-10-09T10:06:14.901Z,14.45
2018-10-09T10:08:46.869Z,14.07
2018-10-09T10:11:19.404Z,13.50
2018-10-09T10:13:51.894Z,14.50
2018-10-09T10:16:24.297Z,15.60
2018-10-09T10:18:56.229Z,14.93
2018-10-09T10:21:28.924Z,14.15
2018-10-09T10:24:01.800Z,15.35
2018-10-09T10:26:33.623Z,13.75
2018-10-09T10:29:05.755Z,13.60
2018-10-09T10:31:38.801Z,12.88
2018-10-09T10:34:11.620Z,13.22
2018-10-09T10:36:42.977Z,13.30
2018-10-09T10:39:15.133Z,13.75
2018-10-09T10:41:47.998Z,12.10
2018-10-09T10:44:19.968Z,13.65
2018-10-09T10:46:51.964Z,13.38
2018-10-09T10:49:23.900Z,13.58
2018-10-09T10:51:56.374Z,12.88
2018-10-09T10:54:28.628Z,11.55
2018-10-09T10:57:00.528Z,11.63
2018-10-09T10:59:32.932Z,12.65
2018-10-09T11:02:05.781Z,12.50
2018-10-09T11:04:37.814Z,11.80
2018-10-09T11:07:10.140Z,11.75
2018-10-09T11:09:42.776Z,10.98
2018-10-09T11:12:15.558Z,10.65
2018-10-09T11:14:46.733Z,10.03
2018-10-09T11:17:19.508Z,10.48
2018-10-09T11:19:51.797Z,11.00
2018-10-09T11:22:28.861Z,10.78
2018-10-09T11:25:00.660Z,11.40
2018-10-09T11:27:33.156Z,12.50
2018-10-09T11:30:05.816Z,12.15
2018-10-09T11:32:37.730Z,10.13
2018-10-09T11:35:09.752Z,10.08
2018-10-09T11:37:42.313Z,9.73
2018-10-09T11:40:14.787Z,9.25
2018-10-09T11:42:46.992Z,8.55
2018-10-09T11:45:19.771Z,7.85
2018-10-09T11:47:52.468Z,7.33
2018-10-09T11:50:24.486Z,7.60
2018-10-09T11:52:56.098Z,9.03
2018-10-09T11:55:28.618Z,8.35
2018-10-09T11:58:01.254Z,7.70
2018-10-09T12:00:36.746Z,6.60
2018-10-09T12:03:09.014Z,6.25
2018-10-09T12:05:41.162Z,7.10
2018-10-09T12:08:14.068Z,7.28
2018-10-09T12:10:45.880Z,8.10
2018-10-09T12:13:18.833Z,6.37
2018-10-09T12:15:51.405Z,5.20
2018-10-09T12:18:23.387Z,5.62
2018-10-09T12:20:55.248Z,6.00
2018-10-09T12:23:29.335Z,6.28
2018-10-09T12:26:01.759Z,6.00
2018-10-09T12:28:33.606Z,5.47
2018-10-09T12:31:06.371Z,6.62
2018-10-09T12:33:38.674Z,6.30
2018-10-09T12:36:11.031Z,5.90
2018-10-09T12:38:43.498Z,5.97
2018-10-09T12:41:15.158Z,5.40
2018-10-09T12:43:47.824Z,5.62
2018-10-09T12:46:19.812Z,5.90
2018-10-09T12:48:52.077Z,4.97
2018-10-09T12:51:25.188Z,5.30
2018-10-09T12:53:57.585Z,5.50
2018-10-09T12:56:29.299Z,5.57
2018-10-09T12:59:01.055Z,5.07
2018-10-09T13:01:33.642Z,5.40
2018-10-09T13:04:06.284Z,5.63
2018-10-09T13:06:37.749Z,5.97
2018-10-09T13:09:11.171Z,5.83
2018-10-09T13:11:43.714Z,5.23
2018-10-09T13:14:15.818Z,5.30
2018-10-09T13:16:47.961Z,5.45
2018-10-09T13:19:20.510Z,5.63
2018-10-09T13:21:52.996Z,5.00
2018-10-09T13:24:24.463Z,5.60
2018-10-09T13:26:57.026Z,5.72
2018-10-09T13:29:29.479Z,5.28
2018-10-09T13:32:01.769Z,5.12
2018-10-09T13:34:34.483Z,4.70
2018-10-09T13:37:06.216Z,4.85
2018-10-09T13:39:38.498Z,4.77
2018-10-09T13:42:10.586Z,5.20
2018-10-09T13:44:42.540Z,4.93
2018-10-09T13:47:14.293Z,5.07
2018-10-09T13:49:47.601Z,4.70
2018-10-09T13:52:19.172Z,5.03
2018-10-09T13:54:53.056Z,6.10
2018-10-09T13:57:25.670Z,5.20
2018-10-09T13:59:58.577Z,5.47
2018-10-09T14:02:31.419Z,5.95
2018-10-09T14:05:03.673Z,6.12
2018-10-09T14:07:36.455Z,5.70
2018-10-09T14:10:09.256Z,5.97
2018-10-09T14:12:41.659Z,5.87
2018-10-09T14:15:14.355Z,6.00
2018-10-09T14:17:47.093Z,6.10
2018-10-09T14:20:19.024Z,5.72
2018-10-09T14:22:50.951Z,6.15
2018-10-09T14:25:24.135Z,5.83
2018-10-09T14:27:57.488Z,6.28
2018-10-09T14:30:29.407Z,5.78
2018-10-09T14:33:01.360Z,5.62
2018-10-09T14:35:33.865Z,5.97
2018-10-09T14:38:06.760Z,6.12
2018-10-09T14:40:39.999Z,5.97
2018-10-09T14:43:11.635Z,5.12
2018-10-09T14:45:45.363Z,5.72
2018-10-09T14:48:17.213Z,6.60
2018-10-09T14:50:49.235Z,6.12
2018-10-09T14:53:21.408Z,6.15
2018-10-09T14:55:54.737Z,5.90
2018-10-09T14:58:26.713Z,6.08
2018-10-09T15:00:58.678Z,7.05
2018-10-09T15:03:31.914Z,8.75
2018-10-09T15:06:05.358Z,8.50
2018-10-09T15:08:37.402Z,6.47
2018-10-09T15:11:09.481Z,5.78
2018-10-09T15:13:42.185Z,5.60
2018-10-09T15:16:15.879Z,6.10
2018-10-09T15:18:48.941Z,5.90
2018-10-09T15:21:22.717Z,6.80
2018-10-09T15:23:55.447Z,6.70
2018-10-09T15:26:27.988Z,7.35
2018-10-09T15:29:00.262Z,6.78
2018-10-09T15:31:33.409Z,8.80
2018-10-09T15:34:06.020Z,8.60
2018-10-09T15:36:37.619Z,7.72
2018-10-09T15:39:11.867Z,9.50
2018-10-09T15:41:45.661Z,9.60
2018-10-09T15:44:18.673Z,9.23
2018-10-09T15:46:49.818Z,11.15
2018-10-09T15:49:21.951Z,11.40
2018-10-09T15:51:54.399Z,12.43
2018-10-09T15:54:25.616Z,10.82
2018-10-09T15:56:57.678Z,8.40
2018-10-09T15:59:31.315Z,8.23
2018-10-09T16:02:03.867Z,9.50
2018-10-09T16:04:35.138Z,8.23
2018-10-09T16:07:06.134Z,9.63
2018-10-09T16:09:37.962Z,11.23
2018-10-09T16:12:09.648Z,11.37
2018-10-09T16:14:40.953Z,10.53
2018-10-09T16:17:12.264Z,10.33
2018-10-09T16:19:45.440Z,11.00
2018-10-09T16:22:16.744Z,11.67
2018-10-09T16:24:48.530Z,11.17
2018-10-09T16:27:20.670Z,11.00
2018-10-09T16:29:52.687Z,9.20
2018-10-09T16:32:23.985Z,9.53
2018-10-09T16:34:55.351Z,9.53
2018-10-09T16:37:27.299Z,10.43
2018-10-09T16:39:59.654Z,9.97
2018-10-09T16:42:31.261Z,10.53
2018-10-09T16:45:02.827Z,10.10
2018-10-09T16:47:35.373Z,10.33
2018-10-09T16:50:08.292Z,10.13
2018-10-09T16:52:39.658Z,10.43
2018-10-09T16:55:11.978Z,10.57
2018-10-09T16:57:44.216Z,11.57
2018-10-09T17:00:16.607Z,12.17
2018-10-09T17:02:47.982Z,12.87
2018-10-09T17:05:19.895Z,12.60
2018-10-09T17:07:52.190Z,14.97
2018-10-09T17:10:24.559Z,13.27
2018-10-09T17:12:59.024Z,14.77
2018-10-09T17:15:31.276Z,23.73
2018-10-09T17:18:03.495Z,26.90
2018-10-09T17:20:34.783Z,23.47
2018-10-09T17:23:06.492Z,17.97
2018-10-09T17:25:38.363Z,15.33
2018-10-09T17:28:10.317Z,15.83
2018-10-09T17:30:42.656Z,20.57
2018-10-09T17:33:13.373Z,21.50
2018-10-09T17:35:47.941Z,22.67
2018-10-09T17:38:20.029Z,23.87
2018-10-09T17:40:54.069Z,23.63
2018-10-09T17:43:26.124Z,23.53
2018-10-09T17:45:58.315Z,22.03
2018-10-09T17:48:29.814Z,21.13
2018-10-09T17:51:02.251Z,21.50
2018-10-09T17:53:34.934Z,25.90
2018-10-09T17:56:07.386Z,51.37
2018-10-09T17:58:42.490Z,30.90
2018-10-09T18:01:14.464Z,23.33
2018-10-09T18:03:46.904Z,20.77
2018-10-09T18:06:18.405Z,18.83
2018-10-09T18:08:50.135Z,18.00
2018-10-09T18:11:24.282Z,18.97
2018-10-09T18:13:56.382Z,19.60
2018-10-09T18:16:30.430Z,16.90
2018-10-09T18:19:02.124Z,16.63
2018-10-09T18:21:35.132Z,16.67
2018-10-09T18:24:07.129Z,16.73
2018-10-09T18:26:38.523Z,16.50
2018-10-09T18:29:10.036Z,17.13
2018-10-09T18:31:42.217Z,17.57
2018-10-09T18:34:14.323Z,17.97
2018-10-09T18:36:45.666Z,16.00
2018-10-09T18:39:17.144Z,17.20
2018-10-09T18:41:49.379Z,19.40
2018-10-09T18:44:20.896Z,21.07
2018-10-09T18:46:52.434Z,21.90
2018-10-09T18:49:24.580Z,21.10
2018-10-09T18:51:56.652Z,21.37
2018-10-09T18:54:28.276Z,21.13
2018-10-09T18:57:00.722Z,21.97
2018-10-09T18:59:32.662Z,20.43
2018-10-09T19:02:04.662Z,20.13
2018-10-09T19:04:36.590Z,21.63
2018-10-09T19:07:09.326Z,22.83
2018-10-09T19:09:42.139Z,20.60
2018-10-09T19:12:14.997Z,21.13
2018-10-09T19:14:46.380Z,18.97
2018-10-09T19:17:18.636Z,24.63
2018-10-09T19:19:50.908Z,25.27
2018-10-09T19:22:22.337Z,26.27
2018-10-09T19:24:53.615Z,23.53
2018-10-09T19:27:26.055Z,22.40
2018-10-09T19:29:58.627Z,24.87
2018-10-09T19:32:30.017Z,25.17
2018-10-09T19:35:01.683Z,24.00
2018-10-09T19:37:33.516Z,23.37
2018-10-09T19:40:06.415Z,20.77
2018-10-09T19:42:37.682Z,21.97
2018-10-09T19:45:09.540Z,24.13
2018-10-09T19:47:40.970Z,23.53
2018-10-09T19:50:13.112Z,23.63
2018-10-09T19:52:44.540Z,25.00
2018-10-09T19:55:17.170Z,26.27
2018-10-09T19:57:49.973Z,24.73
2018-10-09T20:00:22.158Z,25.27
2018-10-09T20:02:54.251Z,25.43
2018-10-09T20:05:26.174Z,25.87
2018-10-09T20:07:58.211Z,25.20
2018-10-09T20:10:30.422Z,25.27
2018-10-09T20:13:04.262Z,23.57
2018-10-09T20:15:38.677Z,24.67
2018-10-09T20:18:10.576Z,26.67
2018-10-09T20:20:42.647Z,24.90
2018-10-09T20:23:14.567Z,27.17
2018-10-09T20:25:47.300Z,26.70
2018-10-09T20:28:19.226Z,25.87
2018-10-09T20:30:50.710Z,29.10
2018-10-09T20:33:22.420Z,26.60
2018-10-09T20:35:54.279Z,24.50
2018-10-09T20:38:26.076Z,26.17
2018-10-09T20:40:57.960Z,28.03
2018-10-09T20:43:29.858Z,27.40
2018-10-09T20:46:01.958Z,27.33
2018-10-09T20:48:34.113Z,27.60
2018-10-09T20:51:06.503Z,28.87
2018-10-09T20:53:38.608Z,28.03
2018-10-09T20:56:10.712Z,28.80
2018-10-09T20:58:42.469Z,29.30
2018-10-09T21:01:14.444Z,27.43
2018-10-09T21:03:47.167Z,29.47
2018-10-09T21:06:19.196Z,30.17
2018-10-09T21:08:51.017Z,29.67
2018-10-09T21:11:22.809Z,30.73
2018-10-09T21:13:54.604Z,31.77
2018-10-09T21:16:26.958Z,30.73
2018-10-09T21:18:58.779Z,29.60
2018-10-09T21:21:31.492Z,30.93
2018-10-09T21:24:03.091Z,32.43
2018-10-09T21:26:34.966Z,30.10
2018-10-09T21:29:06.749Z,29.60
2018-10-09T21:31:38.650Z,29.17
2018-10-09T21:34:10.429Z,31.83
2018-10-09T21:36:42.143Z,29.13
2018-10-09T21:39:14.154Z,30.57
2018-10-09T21:41:46.199Z,32.10
2018-10-09T21:44:17.947Z,31.57
2018-10-09T21:46:50.075Z,31.13
2018-10-09T21:49:21.862Z,31.30
2018-10-09T21:51:53.768Z,29.67
2018-10-09T21:54:25.632Z,32.97
2018-10-09T21:56:57.670Z,33.53
2018-10-09T21:59:29.519Z,32.27
2018-10-09T22:02:01.436Z,31.53
2018-10-09T22:04:33.278Z,32.57
2018-10-09T22:07:05.250Z,32.13
2018-10-09T22:09:36.946Z,32.13
2018-10-09T22:12:09.144Z,30.53
2018-10-09T22:14:41.604Z,31.77
2018-10-09T22:17:13.621Z,31.07
2018-10-09T22:19:45.600Z,31.17
2018-10-09T22:22:17.497Z,33.33
2018-10-09T22:24:49.250Z,33.40
2018-10-09T22:27:21.476Z,33.20
2018-10-09T22:29:53.893Z,32.30
2018-10-09T22:32:25.879Z,31.17
2018-10-09T22:34:58.081Z,32.67
2018-10-09T22:37:30.496Z,34.93
2018-10-09T22:40:02.468Z,34.50
2018-10-09T22:42:34.330Z,35.30
2018-10-09T22:45:06.529Z,35.23
2018-10-09T22:47:38.861Z,35.10
2018-10-09T22:50:11.033Z,35.37
2018-10-09T22:52:42.941Z,34.97
2018-10-09T22:55:14.811Z,34.97
2018-10-09T22:57:46.612Z,36.13
2018-10-09T23:00:19.400Z,38.83
2018-10-09T23:02:51.735Z,36.43
2018-10-09T23:05:23.481Z,38.63
2018-10-09T23:07:55.433Z,39.33
2018-10-09T23:10:27.509Z,36.80
2018-10-09T23:12:59.466Z,39.27
2018-10-09T23:15:32.321Z,39.27
2018-10-09T23:18:05.001Z,37.90
2018-10-09T23:20:37.091Z,37.87
2018-10-09T23:23:08.712Z,36.30
2018-10-09T23:25:40.665Z,36.53
2018-10-09T23:28:12.655Z,39.30
2018-10-09T23:30:45.434Z,36.50
2018-10-09T23:33:17.201Z,39.93
2018-10-09T23:35:49.151Z,38.80
2018-10-09T23:38:22.408Z,41.00
2018-10-09T23:40:54.206Z,40.83
2018-10-09T23:43:26.191Z,40.53
2018-10-09T23:45:58.115Z,39.87
2018-10-09T23:48:30.013Z,38.50
2018-10-09T23:51:01.934Z,40.23
2018-10-09T23:53:33.601Z,40.43
2018-10-09T23:56:05.001Z,40.63
2018-10-09T23:58:36.325Z,41.33
